createdAt,value
2022-12-13T00:01:52.045Z,99605.47
2022-12-13T00:04:22.116Z,99600.31
2022-12-13T00:06:50.277Z,99589.91
2022-12-13T00:09:19.218Z,99598.34
2022-12-13T00:11:46.839Z,99584.16
2022-12-13T00:14:14.353Z,99585.38
2022-12-13T00:16:45.821Z,99586.00
2022-12-13T00:19:13.180Z,99581.66
2022-12-13T00:21:40.163Z,99573.66
2022-12-13T00:24:08.343Z,99567.25
2022-12-13T00:26:35.592Z,99567.63
2022-12-13T00:29:05.769Z,99576.78
2022-12-13T00:34:20.612Z,99574.47
2022-12-13T00:36:48.284Z,99578.81
2022-12-13T00:39:16.711Z,99572.16
2022-12-13T00:41:45.136Z,99584.75
2022-12-13T00:44:13.670Z,99583.97
2022-12-13T00:46:41.783Z,99588.41
2022-12-13T00:49:12.596Z,99589.56
2022-12-13T00:51:40.330Z,99587.34
2022-12-13T00:54:07.267Z,99588.75
2022-12-13T00:56:34.857Z,99591.50
2022-12-13T00:59:02.001Z,99583.69
2022-12-13T01:01:34.481Z,99581.13
2022-12-13T01:04:04.887Z,99573.91
2022-12-13T01:06:40.044Z,99578.91
2022-12-13T01:09:20.283Z,99575.16
2022-12-13T01:11:48.347Z,99572.59
2022-12-13T01:14:16.593Z,99573.13
2022-12-13T01:16:43.806Z,99570.38
2022-12-13T01:19:10.841Z,99582.72
2022-12-13T01:21:38.741Z,99580.78
2022-12-13T01:24:07.083Z,99580.53
2022-12-13T01:26:34.380Z,99574.66
2022-12-13T01:29:01.461Z,99567.97
2022-12-13T01:31:28.811Z,99577.94
2022-12-13T01:33:55.825Z,99571.78
2022-12-13T01:36:27.672Z,99571.09
2022-12-13T01:38:58.395Z,99557.47
2022-12-13T01:41:28.553Z,99549.66
2022-12-13T01:44:07.672Z,99553.59
2022-12-13T01:46:36.115Z,99552.34
2022-12-13T01:49:19.895Z,99547.09
2022-12-13T01:52:01.002Z,99542.41
2022-12-13T01:54:39.260Z,99539.28
2022-12-13T01:57:16.047Z,99533.16
2022-12-13T01:59:44.340Z,99528.63
2022-12-13T02:02:14.488Z,99516.19
2022-12-13T02:05:15.860Z,99510.69
2022-12-13T02:07:45.224Z,99512.56
2022-12-13T02:10:12.513Z,99507.06
2022-12-13T02:12:40.959Z,99506.03
2022-12-13T02:15:14.964Z,99513.00
2022-12-13T02:17:50.608Z,99524.28
2022-12-13T02:20:54.875Z,99511.41
2022-12-13T02:23:34.639Z,99519.47
2022-12-13T02:26:44.793Z,99516.56
2022-12-13T02:29:46.676Z,99522.94
2022-12-13T02:33:02.812Z,99518.50
2022-12-13T02:36:18.844Z,99512.28
2022-12-13T02:39:09.652Z,99520.38
2022-12-13T02:41:52.012Z,99517.44
2022-12-13T02:44:30.347Z,99520.00
2022-12-13T02:47:12.569Z,99510.59
2022-12-13T02:49:47.047Z,99519.41
2022-12-13T02:52:22.065Z,99512.28
2022-12-13T02:54:49.798Z,99518.41
2022-12-13T02:57:46.409Z,99520.00
2022-12-13T03:00:20.057Z,99524.38
2022-12-13T03:03:06.722Z,99512.19
2022-12-13T03:06:18.555Z,99512.03
2022-12-13T03:09:24.548Z,99508.66
2022-12-13T03:12:41.273Z,99508.81
2022-12-13T03:15:14.227Z,99505.28
2022-12-13T03:18:15.569Z,99512.28
2022-12-13T03:20:59.067Z,99504.56
2022-12-13T03:23:27.223Z,99505.19
2022-12-13T03:25:59.864Z,99504.06
2022-12-13T03:28:26.809Z,99507.75
2022-12-13T03:30:53.828Z,99504.38
2022-12-13T03:33:22.128Z,99502.63
2022-12-13T03:35:49.710Z,99506.06
2022-12-13T03:38:22.555Z,99495.28
2022-12-13T03:40:53.459Z,99506.88
2022-12-13T03:43:22.436Z,99514.44
2022-12-13T03:45:51.787Z,99510.91
2022-12-13T03:48:21.925Z,99508.06
2022-12-13T03:50:54.182Z,99515.16
2022-12-13T03:53:33.674Z,99505.13
2022-12-13T03:56:06.326Z,99494.47
2022-12-13T03:58:37.570Z,99499.00
2022-12-13T04:01:10.729Z,99492.97
2022-12-13T04:03:39.926Z,99482.13
2022-12-13T04:06:08.260Z,99497.94
2022-12-13T04:08:37.457Z,99496.06
2022-12-13T04:11:24.889Z,99483.72
2022-12-13T04:13:54.103Z,99479.81
2022-12-13T04:16:22.569Z,99482.38
2022-12-13T04:18:49.787Z,99470.50
2022-12-13T04:21:16.832Z,99466.31
2022-12-13T04:23:43.817Z,99463.66
2022-12-13T04:26:10.910Z,99471.03
2022-12-13T04:28:37.980Z,99472.72
2022-12-13T04:31:05.149Z,99469.53
2022-12-13T04:33:32.880Z,99472.00
2022-12-13T04:36:00.295Z,99478.31
2022-12-13T04:38:27.573Z,99464.91
2022-12-13T04:40:54.509Z,99469.16
2022-12-13T04:43:21.434Z,99470.66
2022-12-13T04:45:48.483Z,99471.38
2022-12-13T04:48:31.168Z,99466.06
2022-12-13T04:51:01.419Z,99466.94
2022-12-13T04:53:30.223Z,99458.84
2022-12-13T04:55:57.456Z,99462.50
2022-12-13T04:58:24.468Z,99458.84
2022-12-13T05:00:51.458Z,99452.03
2022-12-13T05:03:18.660Z,99456.47
2022-12-13T05:05:45.644Z,99450.44
2022-12-13T05:08:13.397Z,99452.31
2022-12-13T05:10:40.912Z,99444.13
2022-12-13T05:13:08.201Z,99443.94
2022-12-13T05:15:35.577Z,99444.75
2022-12-13T05:18:10.337Z,99452.66
2022-12-13T05:20:41.639Z,99454.94
2022-12-13T05:23:08.642Z,99453.44
2022-12-13T05:25:37.224Z,99445.53
2022-12-13T05:28:08.931Z,99448.47
2022-12-13T05:30:40.681Z,99456.09
2022-12-13T05:33:09.050Z,99438.25
2022-12-13T05:35:36.363Z,99434.72
2022-12-13T05:38:04.496Z,99441.00
2022-12-13T05:40:32.759Z,99431.91
2022-12-13T05:43:00.664Z,99428.69
2022-12-13T05:45:32.767Z,99437.66
2022-12-13T05:48:00.467Z,99437.28
2022-12-13T05:50:27.539Z,99435.06
2022-12-13T05:52:54.680Z,99431.53
2022-12-13T05:55:32.610Z,99429.66
2022-12-13T05:58:02.462Z,99429.56
2022-12-13T06:00:31.819Z,99427.66
2022-12-13T06:03:00.695Z,99421.53
2022-12-13T06:05:30.126Z,99419.59
2022-12-13T06:07:58.311Z,99426.94
2022-12-13T06:10:34.852Z,99427.63
2022-12-13T06:13:21.687Z,99439.50
2022-12-13T06:16:01.606Z,99441.28
2022-12-13T06:18:34.106Z,99433.56
2022-12-13T06:21:05.216Z,99440.41
2022-12-13T06:23:34.230Z,99433.47
2022-12-13T06:26:06.856Z,99431.09
2022-12-13T06:28:34.095Z,99433.66
2022-12-13T06:31:02.939Z,99439.03
2022-12-13T06:33:30.014Z,99447.03
2022-12-13T06:35:58.356Z,99440.03
2022-12-13T06:38:32.039Z,99445.16
2022-12-13T06:41:15.034Z,99443.50
2022-12-13T06:43:47.005Z,99439.66
2022-12-13T06:46:15.307Z,99439.47
2022-12-13T06:48:42.320Z,99443.50
2022-12-13T06:51:10.475Z,99440.63
2022-12-13T06:53:40.000Z,99432.03
2022-12-13T06:56:10.412Z,99435.03
2022-12-13T06:58:37.550Z,99444.41
2022-12-13T07:01:14.956Z,99435.72
2022-12-13T07:03:51.073Z,99440.53
2022-12-13T07:06:23.333Z,99442.22
2022-12-13T07:08:54.453Z,99437.41
2022-12-13T07:11:30.609Z,99448.84
2022-12-13T07:13:57.789Z,99456.56
2022-12-13T07:16:25.944Z,99461.91
2022-12-13T07:19:01.120Z,99459.66
2022-12-13T07:21:30.249Z,99470.41
2022-12-13T07:23:57.594Z,99468.81
2022-12-13T07:26:25.148Z,99470.59
2022-12-13T07:28:55.321Z,99473.97
2022-12-13T07:31:24.495Z,99479.38
2022-12-13T07:33:52.301Z,99489.75
2022-12-13T07:36:22.146Z,99494.91
2022-12-13T07:38:55.069Z,99504.38
2022-12-13T07:41:24.361Z,99505.28
2022-12-13T07:43:54.993Z,99504.66
2022-12-13T07:46:32.102Z,99519.59
2022-12-13T07:49:05.615Z,99517.00
2022-12-13T07:54:06.454Z,99523.59
2022-12-13T07:56:35.886Z,99522.16
2022-12-13T07:59:02.884Z,99527.16
2022-12-13T08:01:34.949Z,99525.09
2022-12-13T08:04:04.894Z,99516.41
2022-12-13T08:06:37.120Z,99511.34
2022-12-13T08:09:05.868Z,99522.00
2022-12-13T08:11:33.114Z,99524.38
2022-12-13T08:14:00.147Z,99531.50
2022-12-13T08:16:29.621Z,99549.09
2022-12-13T08:19:03.119Z,99561.94
2022-12-13T08:21:56.758Z,99556.19
2022-12-13T08:24:27.993Z,99544.22
2022-12-13T08:27:01.194Z,99558.72
2022-12-13T08:29:35.806Z,99567.59
2022-12-13T08:32:09.706Z,99568.84
2022-12-13T08:34:37.030Z,99569.03
2022-12-13T08:37:04.656Z,99579.50
2022-12-13T08:39:37.218Z,99585.63
2022-12-13T08:42:15.825Z,99585.09
2022-12-13T08:44:50.819Z,99591.41
2022-12-13T08:47:23.333Z,99589.53
2022-12-13T08:50:01.846Z,99607.03
2022-12-13T08:52:40.203Z,99601.34
2022-12-13T08:55:13.409Z,99593.34
2022-12-13T08:57:41.765Z,99599.66
2022-12-13T09:00:13.328Z,99597.97
2022-12-13T09:02:40.587Z,99595.41
2022-12-13T09:05:09.428Z,99599.13
2022-12-13T09:07:39.680Z,99610.41
2022-12-13T09:10:26.390Z,99605.28
2022-12-13T09:13:01.821Z,99606.97
2022-12-13T09:15:34.278Z,99616.91
2022-12-13T09:18:04.283Z,99624.91
2022-12-13T09:20:41.130Z,99613.53
2022-12-13T09:23:22.960Z,99610.53
2022-12-13T09:26:05.355Z,99611.78
2022-12-13T09:28:35.334Z,99617.00
2022-12-13T09:31:10.805Z,99621.38
2022-12-13T09:33:41.569Z,99629.28
2022-12-13T09:36:14.455Z,99632.13
2022-12-13T09:38:42.189Z,99629.63
2022-12-13T09:41:20.395Z,99628.66
2022-12-13T09:44:30.851Z,99627.50
2022-12-13T09:47:02.263Z,99619.69
2022-12-13T09:49:38.785Z,99618.53
2022-12-13T09:52:11.336Z,99625.91
2022-12-13T09:54:54.564Z,99632.75
2022-12-13T09:57:32.333Z,99645.41
2022-12-13T10:00:05.963Z,99644.94
2022-12-13T10:02:40.508Z,99639.09
2022-12-13T10:05:23.308Z,99640.16
2022-12-13T10:07:55.673Z,99634.28
2022-12-13T10:10:23.853Z,99630.00
2022-12-13T10:13:18.506Z,99633.81
2022-12-13T10:15:57.800Z,99624.31
2022-12-13T10:18:36.764Z,99621.09
2022-12-13T10:21:12.266Z,99615.06
2022-12-13T10:24:07.273Z,99608.13
2022-12-13T10:26:27.426Z,99609.00
2022-12-13T10:29:07.020Z,99616.13
2022-12-13T10:31:49.761Z,99619.47
2022-12-13T10:34:24.697Z,99627.63
2022-12-13T10:36:52.622Z,99635.00
2022-12-13T10:39:44.146Z,99640.03
2022-12-13T10:42:22.990Z,99636.47
2022-12-13T10:45:23.628Z,99631.00
2022-12-13T10:47:51.650Z,99624.31
2022-12-13T10:50:32.470Z,99618.91
2022-12-13T10:53:01.174Z,99617.69
2022-12-13T10:55:38.194Z,99616.41
2022-12-13T10:58:09.821Z,99628.94
2022-12-13T11:00:46.518Z,99615.84
2022-12-13T11:03:33.811Z,99603.84
2022-12-13T11:06:20.596Z,99612.88
2022-12-13T11:08:47.945Z,99607.97
2022-12-13T11:11:18.794Z,99612.31
2022-12-13T11:13:52.414Z,99608.22
2022-12-13T11:16:30.066Z,99617.16
2022-12-13T11:19:20.684Z,99615.72
2022-12-13T11:21:50.866Z,99617.50
2022-12-13T11:24:33.075Z,99624.38
2022-12-13T11:27:35.499Z,99620.09
2022-12-13T11:30:41.203Z,99611.22
2022-12-13T11:33:32.908Z,99615.41
2022-12-13T11:36:23.657Z,99619.94
2022-12-13T11:39:16.751Z,99613.16
2022-12-13T11:42:22.171Z,99620.50
2022-12-13T11:45:22.308Z,99605.41
2022-12-13T11:48:08.887Z,99611.84
2022-12-13T11:50:41.259Z,99613.94
2022-12-13T11:53:19.290Z,99619.81
2022-12-13T11:56:38.888Z,99625.38
2022-12-13T11:59:34.407Z,99617.91
2022-12-13T12:02:25.930Z,99622.00
2022-12-13T12:05:00.531Z,99614.47
2022-12-13T12:07:48.344Z,99620.53
2022-12-13T12:10:49.337Z,99615.94
2022-12-13T12:13:30.955Z,99618.69
2022-12-13T12:16:19.710Z,99615.22
2022-12-13T12:18:46.860Z,99610.63
2022-12-13T12:22:12.819Z,99613.38
2022-12-13T12:24:46.726Z,99608.81
2022-12-13T12:27:57.591Z,99607.81
2022-12-13T12:30:39.537Z,99601.34
2022-12-13T12:33:30.236Z,99610.63
2022-12-13T12:36:23.440Z,99584.78
2022-12-13T12:39:37.661Z,99588.69
2022-12-13T12:43:03.752Z,99594.97
2022-12-13T12:45:58.291Z,99579.53
2022-12-13T12:49:02.363Z,99585.94
2022-12-13T12:52:22.997Z,99592.31
2022-12-13T12:55:08.077Z,99590.06
2022-12-13T12:58:09.138Z,99584.69
2022-12-13T13:01:20.199Z,99567.91
2022-12-13T13:03:50.359Z,99560.22
2022-12-13T13:06:38.460Z,99561.22
2022-12-13T13:09:11.852Z,99555.91
2022-12-13T13:11:43.064Z,99554.28
2022-12-13T13:14:34.896Z,99557.84
2022-12-13T13:17:24.793Z,99545.28
2022-12-13T13:20:18.683Z,99559.00
2022-12-13T13:22:58.502Z,99564.31
2022-12-13T13:25:35.201Z,99562.13
2022-12-13T13:28:16.575Z,99564.03
2022-12-13T13:31:16.212Z,99546.88
2022-12-13T13:33:49.495Z,99558.31
2022-12-13T13:36:44.989Z,99557.44
2022-12-13T13:39:40.635Z,99554.78
2022-12-13T13:42:20.807Z,99551.97
2022-12-13T13:44:51.356Z,99560.97
2022-12-13T13:47:22.347Z,99539.78
2022-12-13T13:50:02.804Z,99525.25
2022-12-13T13:52:44.647Z,99540.16
2022-12-13T13:55:53.100Z,99539.50
2022-12-13T13:59:01.716Z,99535.66
2022-12-13T14:02:01.193Z,99535.66
2022-12-13T14:05:18.550Z,99521.59
2022-12-13T14:08:10.902Z,99516.06
2022-12-13T14:11:08.415Z,99522.13
2022-12-13T14:14:21.733Z,99524.78
2022-12-13T14:17:08.105Z,99528.34
2022-12-13T14:20:21.525Z,99517.63
2022-12-13T14:23:00.618Z,99511.50
2022-12-13T14:25:52.646Z,99510.47
2022-12-13T14:28:45.539Z,99525.47
2022-12-13T14:31:39.896Z,99524.56
2022-12-13T14:34:08.328Z,99511.22
2022-12-13T14:36:36.781Z,99508.63
2022-12-13T14:39:24.451Z,99499.63
2022-12-13T14:41:59.140Z,99508.41
2022-12-13T14:44:34.583Z,99511.06
2022-12-13T14:47:08.171Z,99508.94
2022-12-13T14:49:39.750Z,99503.63
2022-12-13T14:52:25.998Z,99503.63
2022-12-13T14:55:01.080Z,99492.38
2022-12-13T14:57:32.009Z,99486.25
2022-12-13T15:00:02.023Z,99482.91
2022-12-13T15:02:33.600Z,99472.44
2022-12-13T15:05:05.862Z,99471.53
2022-12-13T15:07:41.576Z,99458.41
2022-12-13T15:10:30.557Z,99451.31
2022-12-13T15:12:57.565Z,99453.81
2022-12-13T15:15:34.123Z,99456.34
2022-12-13T15:18:21.290Z,99462.41
2022-12-13T15:20:50.001Z,99462.47
2022-12-13T15:23:26.255Z,99458.72
2022-12-13T15:26:13.160Z,99450.81
2022-12-13T15:29:01.644Z,99453.38
2022-12-13T15:31:38.675Z,99448.97
2022-12-13T15:34:34.898Z,99427.19
2022-12-13T15:37:28.423Z,99425.13
2022-12-13T15:40:02.127Z,99424.97
2022-12-13T15:42:44.997Z,99421.56
2022-12-13T15:45:24.635Z,99420.63
2022-12-13T15:47:53.695Z,99417.97
2022-12-13T15:50:43.816Z,99411.59
2022-12-13T15:53:32.336Z,99416.72
2022-12-13T15:56:01.173Z,99412.19
2022-12-13T15:58:36.040Z,99411.31
2022-12-13T16:01:05.766Z,99399.94
2022-12-13T16:03:44.677Z,99384.75
2022-12-13T16:06:18.609Z,99383.19
2022-12-13T16:08:50.452Z,99388.28
2022-12-13T16:11:29.155Z,99390.44
2022-12-13T16:14:26.090Z,99390.34
2022-12-13T16:16:54.837Z,99383.41
2022-12-13T16:19:22.191Z,99373.91
2022-12-13T16:21:49.759Z,99380.69
2022-12-13T16:24:17.069Z,99381.50
2022-12-13T16:26:46.791Z,99385.03
2022-12-13T16:29:21.390Z,99388.59
2022-12-13T16:31:49.412Z,99392.94
2022-12-13T16:34:26.119Z,99387.78
2022-12-13T16:36:59.765Z,99391.38
2022-12-13T16:39:29.285Z,99391.47
2022-12-13T16:41:56.448Z,99387.09
2022-12-13T16:44:43.825Z,99403.78
2022-12-13T16:47:21.962Z,99406.44
2022-12-13T16:49:54.658Z,99408.28
2022-12-13T16:52:22.236Z,99408.22
2022-12-13T16:54:57.720Z,99405.72
2022-12-13T16:57:24.733Z,99407.25
2022-12-13T16:59:51.842Z,99409.91
2022-12-13T17:02:19.916Z,99414.41
2022-12-13T17:04:47.609Z,99398.69
2022-12-13T17:07:14.986Z,99397.88
2022-12-13T17:09:42.495Z,99384.06
2022-12-13T17:12:10.493Z,99387.56
2022-12-13T17:14:46.682Z,99379.78
2022-12-13T17:17:17.456Z,99367.75
2022-12-13T17:19:44.987Z,99374.84
2022-12-13T17:22:14.781Z,99383.41
2022-12-13T17:24:42.295Z,99380.69
2022-12-13T17:27:09.956Z,99366.13
2022-12-13T17:29:37.028Z,99372.34
2022-12-13T17:32:05.130Z,99375.59
2022-12-13T17:34:32.982Z,99373.97
2022-12-13T17:37:00.888Z,99380.97
2022-12-13T17:39:29.249Z,99390.56
2022-12-13T17:41:56.256Z,99375.72
2022-12-13T17:44:25.210Z,99360.97
2022-12-13T17:46:55.189Z,99372.25
2022-12-13T17:49:23.094Z,99377.50
2022-12-13T17:51:52.773Z,99382.75
2022-12-13T17:54:21.358Z,99393.91
2022-12-13T17:56:48.746Z,99388.06
2022-12-13T17:59:16.632Z,99380.97
2022-12-13T18:01:44.737Z,99379.13
2022-12-13T18:04:12.693Z,99373.06
2022-12-13T18:06:40.950Z,99370.63
2022-12-13T18:09:09.463Z,99370.41
2022-12-13T18:11:36.591Z,99377.28
2022-12-13T18:14:07.843Z,99374.69
2022-12-13T18:16:38.355Z,99372.25
2022-12-13T18:19:12.440Z,99375.06
2022-12-13T18:21:39.959Z,99358.53
2022-12-13T18:24:07.936Z,99346.50
2022-12-13T18:26:35.301Z,99325.59
2022-12-13T18:29:04.341Z,99320.44
2022-12-13T18:31:31.527Z,99326.22
2022-12-13T18:34:08.356Z,99327.25
2022-12-13T18:36:36.680Z,99322.06
2022-12-13T18:39:04.666Z,99320.22
2022-12-13T18:41:32.427Z,99333.16
2022-12-13T18:45:19.724Z,99334.78
2022-12-13T18:47:46.841Z,99337.03
2022-12-13T18:50:13.803Z,99337.94
2022-12-13T18:52:41.510Z,99344.66
2022-12-13T18:55:08.960Z,99345.69
2022-12-13T18:57:36.248Z,99347.31
2022-12-13T19:00:04.707Z,99330.91
2022-12-13T19:02:34.692Z,99316.44
2022-12-13T19:05:02.039Z,99303.44
2022-12-13T19:07:28.993Z,99313.19
2022-12-13T19:09:55.996Z,99321.47
2022-12-13T19:12:23.697Z,99318.66
2022-12-13T19:14:54.767Z,99327.75
2022-12-13T19:17:22.195Z,99330.53
2022-12-13T19:19:49.371Z,99315.03
2022-12-13T19:22:17.685Z,99309.78
2022-12-13T19:24:45.200Z,99308.84
2022-12-13T19:27:12.299Z,99304.84
2022-12-13T19:29:42.264Z,99301.16
2022-12-13T19:32:09.217Z,99283.53
2022-12-13T19:34:36.216Z,99286.38
2022-12-13T19:37:06.470Z,99289.88
2022-12-13T19:39:33.751Z,99283.53
2022-12-13T19:42:00.757Z,99268.91
2022-12-13T19:44:27.697Z,99272.38
2022-12-13T19:46:56.162Z,99274.88
2022-12-13T19:49:23.257Z,99263.47
2022-12-13T19:51:50.209Z,99260.81
2022-12-13T19:54:17.248Z,99253.13
2022-12-13T19:56:44.263Z,99250.47
2022-12-13T19:59:11.976Z,99243.53
2022-12-13T20:01:39.012Z,99232.25
2022-12-13T20:04:06.022Z,99231.28
2022-12-13T20:06:33.145Z,99232.31
2022-12-13T20:09:00.098Z,99215.13
2022-12-13T20:11:27.152Z,99210.69
2022-12-13T20:13:55.724Z,99213.28
2022-12-13T20:16:26.081Z,99213.97
2022-12-13T20:18:58.824Z,99214.84
2022-12-13T20:21:27.317Z,99208.19
2022-12-13T20:23:54.894Z,99204.91
2022-12-13T20:26:25.803Z,99207.56
2022-12-13T20:28:52.780Z,99209.22
2022-12-13T20:31:23.514Z,99209.34
2022-12-13T20:33:58.661Z,99205.34
2022-12-13T20:36:28.852Z,99188.25
2022-12-13T20:38:59.788Z,99178.75
2022-12-13T20:41:30.658Z,99169.91
2022-12-13T20:44:00.014Z,99167.25
2022-12-13T20:46:32.642Z,99154.06
2022-12-13T20:49:06.052Z,99149.72
2022-12-13T20:51:35.304Z,99153.13
2022-12-13T20:54:02.641Z,99152.22
2022-12-13T20:56:35.189Z,99142.84
2022-12-13T20:59:09.639Z,99144.69
2022-12-13T21:01:38.746Z,99134.22
2022-12-13T21:04:08.174Z,99123.06
2022-12-13T21:06:40.781Z,99126.66
2022-12-13T21:09:09.803Z,99128.38
2022-12-13T21:11:46.972Z,99118.84
2022-12-13T21:14:23.451Z,99115.44
2022-12-13T21:16:59.327Z,99111.03
2022-12-13T21:19:34.444Z,99098.13
2022-12-13T21:22:04.752Z,99107.97
2022-12-13T21:24:31.865Z,99095.78
2022-12-13T21:27:00.092Z,99088.66
2022-12-13T21:29:27.299Z,99083.75
2022-12-13T21:31:55.018Z,99072.47
2022-12-13T21:34:23.089Z,99073.28
2022-12-13T21:36:53.228Z,99067.19
2022-12-13T21:39:24.787Z,99077.91
2022-12-13T21:41:59.082Z,99064.84
2022-12-13T21:44:26.460Z,99068.13
2022-12-13T21:49:41.406Z,99052.81
2022-12-13T21:52:12.453Z,99047.72
2022-12-13T21:54:40.391Z,99049.47
2022-12-13T21:57:29.706Z,99044.13
2022-12-13T22:00:02.886Z,99042.53
2022-12-13T22:02:30.819Z,99034.66
2022-12-13T22:04:59.264Z,99025.97
2022-12-13T22:07:28.504Z,99019.91
2022-12-13T22:10:01.532Z,99017.34
2022-12-13T22:12:39.358Z,99020.69
2022-12-13T22:15:13.598Z,99012.94
2022-12-13T22:17:42.268Z,99005.19
2022-12-13T22:20:12.976Z,99005.31
2022-12-13T22:22:41.792Z,99014.81
2022-12-13T22:25:10.737Z,99000.19
2022-12-13T22:27:37.898Z,98984.06
2022-12-13T22:30:05.762Z,98987.53
2022-12-13T22:32:32.972Z,98993.59
2022-12-13T22:34:59.987Z,98995.28
2022-12-13T22:37:27.302Z,98990.06
2022-12-13T22:39:54.464Z,98989.09
2022-12-13T22:42:21.942Z,98984.63
2022-12-13T22:44:48.985Z,98996.78
2022-12-13T22:47:16.262Z,99001.97
2022-12-13T22:49:43.303Z,99008.06
2022-12-13T22:52:10.299Z,99005.50
2022-12-13T22:54:37.313Z,99010.84
2022-12-13T22:57:04.394Z,99019.34
2022-12-13T22:59:31.508Z,99011.47
2022-12-13T23:02:02.396Z,99012.50
2022-12-13T23:04:31.836Z,98994.47
2022-12-13T23:06:59.106Z,99006.69
2022-12-13T23:09:26.103Z,99007.56
2022-12-13T23:12:11.545Z,98996.53
2022-12-13T23:14:38.651Z,98995.53
2022-12-13T23:17:05.781Z,98988.78
2022-12-13T23:19:49.514Z,98986.16
2022-12-13T23:22:20.651Z,98980.03
2022-12-13T23:24:47.702Z,98986.22
2022-12-13T23:27:14.864Z,98981.16
2022-12-13T23:29:42.008Z,98976.69
2022-12-13T23:32:09.018Z,98975.88
2022-12-13T23:34:36.040Z,98982.94
2022-12-13T23:37:03.023Z,98987.28
2022-12-13T23:39:30.020Z,98972.66
2022-12-13T23:41:57.081Z,98977.00
2022-12-13T23:44:24.835Z,98988.28
2022-12-13T23:46:51.845Z,98989.28
2022-12-13T23:49:19.670Z,98980.47
2022-12-13T23:51:46.652Z,98977.19
2022-12-13T23:54:16.624Z,98972.84
2022-12-13T23:56:44.135Z,98965.13
2022-12-13T23:59:11.686Z,98960.09
